Latest Weather Observations for Red Rocks Point

IDW60801

Issued at 1:35 pm WST Wednesday 23 July 2014 (issued every 30 minutes, with the page automatically refreshed every 10 minutes)

About weather observations | Map of weather stations | Latest weather observations for WA | Other Formats
Station Details ID: 011053 Name: RED ROCKS POINT Lat: -32.20 Lon: 127.53 Height: 3.1 m
Data from the previous 72 hours. | See also: Recent months for locations in Western Australia
Date/Time
WST
Temp
°C
App
Temp
°C
Dew
Point
Rel
Hum
%
Delta-T
°C
Wind Press
QNH
hPa
Press
MSL
hPa
Rain
since 9 am
mm
Dir
 
Spd
km/h
Gust
km/h
Spd
kts
Gust
kts
23/01:30pm 17.2 14.2 12.5 74 2.6 WSW 20 30 11 16 1012.0 - 0.0
23/01:00pm 17.1 14.4 13.0 77 2.3 WSW 19 28 10 15 1012.0 - 0.0
23/12:30pm 17.1 14.2 12.8 76 2.4 WSW 20 30 11 16 1012.0 - 0.0
23/12:00pm 16.8 12.6 12.5 76 2.4 WSW 26 35 14 19 1012.1 1012.1 0.0
23/11:30am 16.7 13.7 12.7 77 2.2 WSW 20 32 11 17 1012.4 - 0.0
23/11:00am 16.3 13.4 12.3 77 2.2 WSW 19 28 10 15 1012.5 - 0.0
23/10:30am 15.7 12.8 12.3 80 1.9 WSW 19 28 10 15 1012.9 - 0.0
23/10:00am 14.9 12.2 12.8 87 1.2 WSW 19 26 10 14 1013.2 - 0.0
23/09:30am 15.0 12.6 13.7 92 0.7 WSW 19 28 10 15 1013.1 - 0.0
23/09:00am 14.3 12.9 13.3 94 0.6 W 13 19 7 10 1013.0 1013.0 18.2
23/08:30am 13.3 11.6 12.5 95 0.4 WNW 13 19 7 10 1012.7 - 18.2
23/08:00am 12.4 10.8 11.6 95 0.4 WNW 11 15 6 8 1012.3 - 18.2
23/07:30am 11.7 9.5 10.9 95 0.4 WNW 13 19 7 10 1012.1 - 18.2
23/07:00am 11.6 9.4 10.8 95 0.4 WNW 13 17 7 9 1011.6 - 18.2
23/06:30am 11.7 9.5 10.8 94 0.5 W 13 20 7 11 1011.3 - 18.2
23/06:00am 12.2 9.4 11.3 94 0.5 W 17 24 9 13 1010.8 1010.8 17.8
23/05:30am 12.2 7.7 11.3 94 0.5 WSW 26 41 14 22 1010.3 - 17.2
23/05:00am 12.4 8.0 11.6 95 0.4 SW 26 35 14 19 1010.0 - 15.4
23/04:30am 11.7 8.2 10.9 95 0.4 SW 20 30 11 16 1009.6 - 15.0
23/04:00am 11.1 8.8 10.3 95 0.4 WNW 13 17 7 9 1009.6 - 12.8
23/03:30am 11.1 8.7 10.2 94 0.5 W 13 19 7 10 1009.5 - 10.0
23/03:00am 11.1 8.4 10.2 94 0.5 W 15 19 8 10 1009.6 1009.6 7.6
23/02:30am 11.1 8.4 10.2 94 0.5 W 15 20 8 11 1009.7 - 6.0
23/02:00am 11.8 9.6 10.9 94 0.5 W 13 17 7 9 1009.7 - 5.6
23/01:30am 11.6 9.0 10.7 94 0.5 SW 15 19 8 10 1009.8 - 5.6
23/01:00am 12.0 8.7 10.9 93 0.6 SW 19 30 10 16 1010.0 - 4.6
23/12:30am 12.3 9.1 11.2 93 0.6 S 19 20 10 11 1010.0 - 4.2
23/12:00am 12.1 12.3 10.7 91 0.7 NW 0 6 0 3 1010.2 1010.2 3.6
 
Date/Time
WST
Temp
°C
App
Temp
°C
Dew
Point
Rel
Hum
%
Delta-T
°C
Wind Press
QNH
hPa
Press
MSL
hPa
Rain
since 9 am
mm
Dir
 
Spd
km/h
Gust
km/h
Spd
kts
Gust
kts
22/11:30pm 12.8 10.8 11.5 92 0.7 SSE 13 17 7 9 1010.5 - 3.2
22/11:00pm 12.7 13.1 11.4 92 0.7 CALM 0 13 0 7 1011.0 - 3.0
22/10:30pm 11.8 12.0 10.4 91 0.7 CALM 0 0 0 0 1011.5 - 2.8
22/10:00pm 12.0 12.2 10.4 90 0.8 CALM 0 0 0 0 1011.8 - 2.8
22/09:30pm 12.4 12.6 10.6 89 0.9 CALM 0 0 0 0 1012.3 - 2.4
22/09:00pm 12.6 11.5 10.8 89 0.9 E 7 9 4 5 1012.4 1012.4 2.2
22/08:30pm 12.5 11.0 10.7 89 0.9 E 9 11 5 6 1012.7 - 2.2
22/08:00pm 11.8 11.9 10.0 89 0.9 CALM 0 0 0 0 1013.1 - 1.8
22/07:30pm 11.9 12.0 10.0 88 1.0 CALM 0 0 0 0 1013.5 - 1.2
22/07:00pm 12.2 10.5 9.8 85 1.2 N 9 11 5 6 1013.7 - 0.4
22/06:30pm 13.7 10.1 8.5 71 2.6 NNE 17 26 9 14 1013.5 - 0.0
22/06:00pm 15.0 11.5 7.1 59 3.9 NNE 15 22 8 12 1013.0 1013.0 0.0
22/05:30pm 15.2 12.0 6.7 57 4.1 NNE 13 22 7 12 1012.6 - 0.0
22/05:00pm 15.8 12.2 6.8 55 4.4 N 15 24 8 13 1012.5 - 0.0
22/04:30pm 16.5 12.6 6.9 53 4.7 N 17 28 9 15 1012.7 - 0.0
22/04:00pm 17.1 13.3 7.7 54 4.7 N 17 24 9 13 1012.6 - 0.0
22/03:30pm 16.9 12.0 8.6 58 4.3 N 24 35 13 19 1012.7 - 0.0
22/03:00pm 15.4 13.3 12.3 82 1.7 ENE 15 17 8 9 1012.9 1012.9 0.0
22/02:30pm 16.8 15.2 11.5 71 2.9 ESE 11 13 6 7 1012.8 - 0.0
22/02:00pm 18.9 17.1 9.4 54 5.0 NNE 9 13 5 7 1012.8 - 0.0
22/01:30pm 18.8 16.0 8.7 52 5.2 N 13 17 7 9 1013.2 - 0.0
22/01:00pm 18.6 16.4 9.4 55 4.8 N 11 17 6 9 1013.7 - 0.0
22/12:30pm 18.4 15.3 8.7 53 5.0 N 15 22 8 12 1014.4 - 0.0
22/12:00pm 18.1 15.4 8.9 55 4.8 N 13 19 7 10 1015.0 1015.0 0.0
22/11:30am 17.4 14.5 9.8 61 4.0 N 15 20 8 11 1016.1 - 0.0
22/11:00am 14.1 12.1 11.4 84 1.4 E 13 17 7 9 1016.5 - 0.0
22/10:30am 13.8 11.9 11.7 87 1.1 E 13 17 7 9 1016.4 - 0.0
22/10:00am 13.4 11.6 12.0 91 0.8 E 13 17 7 9 1017.1 - 0.0
22/09:30am 13.4 14.2 12.6 95 0.4 CALM 0 0 0 0 1017.5 - 0.0
22/09:00am 12.3 12.8 11.7 96 0.3 CALM 0 0 0 0 1017.5 1017.5 0.2
22/08:30am 11.1 10.0 10.6 97 0.3 NNW 7 11 4 6 1017.6 - 0.2
22/08:00am 8.9 6.1 8.5 97 0.2 N 13 17 7 9 1018.1 - 0.2
22/07:30am 6.7 5.9 6.3 97 0.2 CALM 0 0 0 0 1018.3 - 0.2
22/07:00am 4.6 2.0 4.2 97 0.2 N 7 9 4 5 1018.3 - 0.2
22/06:30am 4.6 1.2 4.2 97 0.2 N 11 13 6 7 1018.3 - 0.2
22/06:00am 5.1 1.4 4.7 97 0.2 NNW 13 15 7 8 1018.0 1018.0 0.2
22/05:30am 5.1 3.9 4.7 97 0.2 CALM 0 11 0 6 1017.9 - 0.2
22/05:00am 4.7 3.4 4.1 96 0.3 CALM 0 0 0 0 1017.8 - 0.2
22/04:30am 6.1 4.0 5.7 97 0.2 NW 6 15 3 8 1017.8 - 0.2
22/04:00am 6.7 3.4 6.3 97 0.2 NNW 13 19 7 10 1017.9 - 0.2
22/03:30am 5.8 1.1 5.2 96 0.3 NNW 19 20 10 11 1017.7 - 0.0
22/03:00am 6.2 2.0 5.6 96 0.3 NNW 17 19 9 10 1017.6 1017.6 0.0
22/02:30am 7.8 5.4 7.2 96 0.3 N 9 11 5 6 1017.7 - 0.0
22/02:00am 7.8 5.4 7.2 96 0.3 N 9 11 5 6 1017.7 - 0.0
22/01:30am 8.3 6.1 7.7 96 0.3 N 9 11 5 6 1017.7 - 0.0
22/01:00am 7.9 5.2 7.3 96 0.3 N 11 13 6 7 1017.8 - 0.0
22/12:30am 7.8 5.4 7.1 95 0.3 N 9 11 5 6 1018.0 - 0.0
22/12:00am 9.2 8.8 8.4 95 0.4 CALM 0 0 0 0 1018.1 1018.1 0.0
 
Date/Time
WST
Temp
°C
App
Temp
°C
Dew
Point
Rel
Hum
%
Delta-T
°C
Wind Press
QNH
hPa
Press
MSL
hPa
Rain
since 9 am
mm
Dir
 
Spd
km/h
Gust
km/h
Spd
kts
Gust
kts
21/11:30pm 10.1 8.3 9.5 96 0.3 N 9 11 5 6 1018.3 - 0.0
21/11:00pm 9.9 9.0 9.1 95 0.4 SW 4 17 2 9 1018.5 - 0.0
21/10:30pm 10.1 10.0 9.3 95 0.4 CALM 0 0 0 0 1018.6 - 0.0
21/10:00pm 9.8 9.6 9.0 95 0.4 CALM 0 0 0 0 1018.7 - 0.0
21/09:30pm 9.2 8.8 8.3 94 0.4 CALM 0 0 0 0 1018.8 - 0.0
21/09:00pm 9.4 9.1 8.5 94 0.4 CALM 0 0 0 0 1019.0 1019.0 0.0
21/08:30pm 9.9 9.6 8.8 93 0.5 CALM 0 0 0 0 1018.9 - 0.0
21/08:00pm 10.1 9.9 9.0 93 0.5 CALM 0 0 0 0 1019.1 - 0.0
21/07:30pm 10.5 10.4 9.3 92 0.6 CALM 0 0 0 0 1018.8 - 0.0
21/07:00pm 10.9 10.8 9.5 91 0.7 CALM 0 0 0 0 1018.7 - 0.0
21/06:30pm 11.2 11.2 9.8 91 0.7 CALM 0 0 0 0 1018.7 - 0.0
21/06:00pm 10.4 10.1 8.7 89 0.8 CALM 0 0 0 0 1018.1 1018.1 0.0
21/05:30pm 11.3 11.1 9.2 87 1.0 CALM 0 0 0 0 1017.7 - 0.0
21/05:00pm 12.9 11.9 10.3 84 1.3 SSW 6 7 3 4 1017.2 - 0.0
21/04:30pm 14.6 13.8 11.6 82 1.6 SSW 7 9 4 5 1016.9 - 0.0
21/04:00pm 15.4 14.7 12.0 80 1.8 S 7 11 4 6 1016.7 - 0.0
21/03:30pm 15.8 14.3 12.0 78 2.1 S 11 13 6 7 1016.5 - 0.0
21/03:00pm 16.6 15.3 12.4 76 2.3 S 11 13 6 7 1016.4 1016.4 0.0
21/02:30pm 16.4 14.5 11.8 74 2.5 SSW 13 17 7 9 1016.2 - 0.0
21/02:00pm 16.2 14.3 11.8 75 2.4 SSW 13 17 7 9 1016.3 - 0.0
21/01:30pm 16.0 14.2 12.2 78 2.1 SSW 13 17 7 9 1016.2 - 0.0
21/01:00pm 15.7 14.5 11.7 77 2.2 S 9 13 5 7 1016.2 - 0.0
21/12:30pm 16.0 13.9 11.2 73 2.6 S 13 17 7 9 1016.2 - 0.0
21/12:00pm 16.0 15.0 12.4 79 2.0 S 9 13 5 7 1016.4 1016.4 0.0
21/11:30am 16.3 13.8 11.2 72 2.7 S 15 19 8 10 1016.7 - 0.0
21/11:00am 16.5 14.7 11.0 70 2.9 S 11 15 6 8 1017.0 - 0.0
21/10:30am 18.3 17.0 11.1 63 3.9 SW 9 13 5 7 1017.2 - 0.0
21/10:00am 17.2 15.4 11.0 67 3.3 NW 11 15 6 8 1017.3 - 0.0
21/09:30am 15.5 13.6 10.5 72 2.6 NNW 11 17 6 9 1017.5 - 0.0
21/09:00am 14.6 11.4 9.8 73 2.5 NNW 17 22 9 12 1017.4 1017.4 1.0
21/08:30am 12.9 9.9 9.4 79 1.8 NW 15 19 8 10 1017.0 - 1.0
21/08:00am 11.2 8.5 8.8 85 1.2 NW 13 17 7 9 1016.6 - 1.0
21/07:30am 9.8 6.4 7.6 86 1.0 NW 15 19 8 10 1016.6 - 1.0
21/07:00am 9.0 5.2 7.6 91 0.7 NW 17 20 9 11 1016.2 - 1.0
21/06:30am 7.9 3.5 6.7 92 0.6 NW 19 20 10 11 1015.9 - 1.0
21/06:00am 7.9 3.5 6.7 92 0.6 NW 19 20 10 11 1015.7 1015.7 1.0
21/05:30am 8.5 4.3 7.3 92 0.6 NW 19 20 10 11 1015.2 - 1.0
21/05:00am 8.3 4.0 7.1 92 0.6 NW 19 20 10 11 1014.9 - 1.0
21/04:30am 8.2 3.9 7.0 92 0.6 NW 19 22 10 12 1014.7 - 1.0
21/04:00am 8.6 4.8 7.4 92 0.6 NW 17 20 9 11 1014.5 - 1.0
21/03:30am 8.8 5.0 7.6 92 0.6 NW 17 20 9 11 1014.5 - 1.0
21/03:00am 9.0 5.6 7.6 91 0.7 WNW 15 17 8 9 1014.5 1014.5 1.0
21/02:30am 9.8 6.6 8.4 91 0.7 NW 15 19 8 10 1014.6 - 1.0
21/02:00am 10.0 7.2 8.6 91 0.7 NNW 13 17 7 9 1014.7 - 1.0
21/01:30am 10.4 7.8 9.2 92 0.6 NW 13 15 7 8 1014.5 - 1.0
21/01:00am 10.5 8.3 9.3 92 0.6 NNW 11 13 6 7 1014.2 - 1.0
21/12:30am 10.7 7.8 9.6 93 0.6 N 15 20 8 11 1014.2 - 1.0
21/12:00am 10.5 7.5 9.4 93 0.5 N 15 19 8 10 1014.5 1014.5 1.0
 
Date/Time
WST
Temp
°C
App
Temp
°C
Dew
Point
Rel
Hum
%
Delta-T
°C
Wind Press
QNH
hPa
Press
MSL
hPa
Rain
since 9 am
mm
Dir
 
Spd
km/h
Gust
km/h
Spd
kts
Gust
kts
20/11:30pm 10.3 7.7 9.2 93 0.5 NNW 13 17 7 9 1015.0 - 1.0
20/11:00pm 11.2 9.2 10.1 93 0.6 N 11 20 6 11 1015.2 - 1.0
20/10:30pm 11.2 9.6 10.1 93 0.6 NNE 9 11 5 6 1015.2 - 1.0
20/10:00pm 11.1 9.0 9.9 92 0.6 NNE 11 13 6 7 1015.2 - 0.8
20/09:30pm 11.6 9.9 10.0 90 0.8 N 9 13 5 7 1015.4 - 0.8
20/09:00pm 12.4 10.3 11.0 91 0.7 NE 13 19 7 10 1015.1 1015.1 0.8
20/08:30pm 12.3 10.5 10.7 90 0.8 NE 11 13 6 7 1015.2 - 0.8
20/08:00pm 12.6 10.8 11.0 90 0.8 NE 11 13 6 7 1015.4 - 0.8
20/07:30pm 13.0 11.3 11.2 89 0.9 NE 11 15 6 8 1015.4 - 0.8
20/07:00pm 13.1 11.0 11.2 88 1.0 NE 13 17 7 9 1015.5 - 0.8
20/06:30pm 13.8 10.7 11.7 87 1.1 ENE 19 20 10 11 1015.2 - 0.8
20/06:00pm 13.9 10.7 11.8 87 1.1 E 20 24 11 13 1015.2 1015.2 0.8
20/05:30pm 13.8 9.8 11.7 87 1.1 E 24 28 13 15 1015.0 - 0.8
20/05:00pm 13.7 10.4 11.7 88 1.1 E 20 24 11 13 1014.6 - 0.8
20/04:30pm 13.9 11.2 11.8 87 1.1 E 17 20 9 11 1015.0 - 0.6
20/04:00pm 14.2 12.6 11.4 83 1.5 E 11 15 6 8 1015.2 - 0.0
20/03:30pm 14.3 11.9 11.3 82 1.6 ESE 15 17 8 9 1014.6 - 0.0
20/03:00pm 14.6 12.1 11.0 79 1.9 E 15 17 8 9 1014.5 1014.5 0.0
20/02:30pm 14.8 11.7 10.4 75 2.3 E 17 20 9 11 1014.4 - 0.0
20/02:00pm 15.1 11.6 10.3 73 2.5 E 19 20 10 11 1014.3 - 0.0

Other Formats:

Comma delimited format used in spreadsheet applications
http://www.bom.gov.au/fwo/IDW60801/IDW60801.94644.axf

JavaScript Object Notation format (JSON) in row-major order
http://www.bom.gov.au/fwo/IDW60801/IDW60801.94644.json